createdAt,value
2022-08-26T00:00:24.408Z,101161.47
2022-08-26T00:02:54.635Z,101159.84
2022-08-26T00:05:24.951Z,101161.08
2022-08-26T00:07:55.105Z,101164.81
2022-08-26T00:10:25.977Z,101164.43
2022-08-26T00:12:56.727Z,101163.34
2022-08-26T00:15:26.944Z,101162.24
2022-08-26T00:17:57.164Z,101160.47
2022-08-26T00:20:27.798Z,101162.00
2022-08-26T00:22:58.004Z,101162.23
2022-08-26T00:25:28.538Z,101161.87
2022-08-26T00:27:59.327Z,101162.76
2022-08-26T00:30:30.169Z,101159.23
2022-08-26T00:33:00.528Z,101159.47
2022-08-26T00:35:30.971Z,101154.87
2022-08-26T00:38:01.438Z,101168.44
2022-08-26T00:40:32.327Z,101177.28
2022-08-26T00:43:02.759Z,101176.92
2022-08-26T00:45:33.681Z,101181.64
2022-08-26T00:48:04.419Z,101187.34
2022-08-26T00:50:35.421Z,101184.67
2022-08-26T00:53:05.744Z,101184.62
2022-08-26T00:55:38.153Z,101183.22
2022-08-26T00:58:06.384Z,101180.00
2022-08-26T01:00:37.179Z,101183.42
2022-08-26T01:03:07.564Z,101177.56
2022-08-26T01:05:37.650Z,101166.29
2022-08-26T01:08:08.434Z,101172.61
2022-08-26T01:10:38.677Z,101174.34
2022-08-26T01:13:09.424Z,101171.31
2022-08-26T01:15:40.055Z,101171.23
2022-08-26T01:18:10.774Z,101176.99
2022-08-26T01:20:41.608Z,101173.86
2022-08-26T01:23:12.062Z,101172.40
2022-08-26T01:25:42.989Z,101173.48
2022-08-26T01:28:13.698Z,101177.39
2022-08-26T01:30:44.256Z,101181.42
2022-08-26T01:33:14.427Z,101178.27
2022-08-26T01:35:44.684Z,101177.37
2022-08-26T01:38:15.498Z,101179.86
2022-08-26T01:40:46.309Z,101180.49
2022-08-26T01:43:16.641Z,101180.23
2022-08-26T01:45:46.863Z,101181.06
2022-08-26T01:48:17.623Z,101183.41
2022-08-26T01:50:47.719Z,101182.68
2022-08-26T01:53:18.033Z,101183.36
2022-08-26T01:55:48.082Z,101185.50
2022-08-26T01:58:18.697Z,101183.94
2022-08-26T02:00:49.295Z,101179.99
2022-08-26T02:03:20.014Z,101183.36
2022-08-26T02:05:51.538Z,101183.20
2022-08-26T02:08:24.641Z,101180.67
2022-08-26T02:10:51.692Z,101180.17
2022-08-26T02:13:21.954Z,101183.28
2022-08-26T02:15:52.528Z,101191.26
2022-08-26T02:18:23.250Z,101190.22
2022-08-26T02:20:54.117Z,101192.47
2022-08-26T02:23:24.699Z,101194.66
2022-08-26T02:25:54.691Z,101191.88
2022-08-26T02:28:26.824Z,101199.06
2022-08-26T02:30:56.278Z,101192.77
2022-08-26T02:33:27.129Z,101196.71
2022-08-26T02:35:57.510Z,101199.91
2022-08-26T02:38:28.011Z,101198.06
2022-08-26T02:40:58.960Z,101198.98
2022-08-26T02:43:31.748Z,101204.60
2022-08-26T02:46:02.156Z,101208.20
2022-08-26T02:48:30.249Z,101200.67
2022-08-26T02:51:00.743Z,101204.77
2022-08-26T02:53:32.075Z,101201.63
2022-08-26T02:56:02.150Z,101205.40
2022-08-26T02:58:32.514Z,101206.26
2022-08-26T03:01:04.925Z,101201.57
2022-08-26T03:03:32.755Z,101205.26
2022-08-26T03:06:03.049Z,101204.54
2022-08-26T03:08:33.886Z,101206.90
2022-08-26T03:11:04.233Z,101200.90
2022-08-26T03:13:34.802Z,101199.39
2022-08-26T03:16:05.348Z,101202.09
2022-08-26T03:18:35.290Z,101201.48
2022-08-26T03:21:05.347Z,101200.15
2022-08-26T03:23:35.727Z,101202.00
2022-08-26T03:26:06.025Z,101198.27
2022-08-26T03:28:36.454Z,101202.88
2022-08-26T03:31:06.653Z,101198.35
2022-08-26T03:33:36.766Z,101198.14
2022-08-26T03:36:07.458Z,101200.85
2022-08-26T03:38:38.025Z,101203.49
2022-08-26T03:41:08.549Z,101202.74
2022-08-26T03:43:38.640Z,101209.49
2022-08-26T03:46:09.093Z,101203.74
2022-08-26T03:48:39.615Z,101206.34
2022-08-26T03:51:10.349Z,101205.89
2022-08-26T03:53:40.560Z,101200.89
2022-08-26T03:56:11.145Z,101206.50
2022-08-26T03:58:42.728Z,101204.65
2022-08-26T04:01:11.781Z,101208.00
2022-08-26T04:03:42.227Z,101210.98
2022-08-26T04:06:12.503Z,101212.51
2022-08-26T04:08:42.413Z,101206.31
2022-08-26T04:11:12.762Z,101209.85
2022-08-26T04:13:42.952Z,101210.03
2022-08-26T04:16:13.963Z,101214.08
2022-08-26T04:18:46.590Z,101213.41
2022-08-26T04:21:15.338Z,101212.44
2022-08-26T04:23:47.223Z,101209.62
2022-08-26T04:26:15.373Z,101212.46
2022-08-26T04:28:46.147Z,101207.24
2022-08-26T04:31:16.953Z,101210.97
2022-08-26T04:33:47.018Z,101210.38
2022-08-26T04:36:17.567Z,101212.20
2022-08-26T04:38:47.634Z,101214.69
2022-08-26T04:41:17.651Z,101214.12
2022-08-26T04:43:47.814Z,101217.19
2022-08-26T04:46:18.149Z,101218.80
2022-08-26T04:48:48.817Z,101221.26
2022-08-26T04:51:19.171Z,101221.08
2022-08-26T04:53:49.212Z,101216.69
2022-08-26T04:56:19.829Z,101218.82
2022-08-26T04:58:49.746Z,101221.11
2022-08-26T05:01:20.511Z,101223.80
2022-08-26T05:03:50.954Z,101224.00
2022-08-26T05:06:21.024Z,101223.37
2022-08-26T05:08:51.283Z,101223.85
2022-08-26T05:11:22.051Z,101221.94
2022-08-26T05:13:51.925Z,101221.97
2022-08-26T05:16:22.813Z,101223.78
2022-08-26T05:18:53.478Z,101222.01
2022-08-26T05:21:23.998Z,101223.62
2022-08-26T05:23:54.701Z,101223.27
2022-08-26T05:26:25.714Z,101226.21
2022-08-26T05:28:56.190Z,101230.36
2022-08-26T05:31:26.980Z,101230.02
2022-08-26T05:33:57.344Z,101234.33
2022-08-26T05:36:27.685Z,101234.86
2022-08-26T05:38:57.949Z,101243.55
2022-08-26T05:41:34.527Z,101245.54
2022-08-26T05:43:58.861Z,101241.15
2022-08-26T05:46:29.468Z,101241.80
2022-08-26T05:49:00.085Z,101248.75
2022-08-26T05:51:30.971Z,101246.39
2022-08-26T05:54:00.787Z,101246.00
2022-08-26T05:56:31.521Z,101245.24
2022-08-26T05:59:01.736Z,101247.99
2022-08-26T06:01:31.989Z,101244.73
2022-08-26T06:04:02.143Z,101247.24
2022-08-26T06:06:32.401Z,101249.18
2022-08-26T06:09:03.171Z,101250.30
2022-08-26T06:11:33.660Z,101249.24
2022-08-26T06:14:04.299Z,101251.86
2022-08-26T06:16:34.297Z,101258.38
2022-08-26T06:19:10.907Z,101261.13
2022-08-26T06:21:35.689Z,101259.65
2022-08-26T06:24:05.914Z,101262.44
2022-08-26T06:26:36.126Z,101262.29
2022-08-26T06:29:06.710Z,101266.91
2022-08-26T06:31:37.599Z,101265.05
2022-08-26T06:34:10.748Z,101266.07
2022-08-26T06:36:38.159Z,101270.10
2022-08-26T06:39:08.700Z,101270.96
2022-08-26T06:41:43.233Z,101270.64
2022-08-26T06:44:10.138Z,101271.80
2022-08-26T06:46:40.677Z,101269.60
2022-08-26T06:49:10.735Z,101274.53
2022-08-26T06:51:41.404Z,101276.05
2022-08-26T06:54:11.453Z,101276.61
2022-08-26T06:56:41.789Z,101277.84
2022-08-26T06:59:12.557Z,101275.00
2022-08-26T07:01:43.914Z,101277.48
2022-08-26T07:04:12.874Z,101282.75
2022-08-26T07:06:43.426Z,101282.76
2022-08-26T07:09:13.917Z,101281.36
2022-08-26T07:11:44.059Z,101281.10
2022-08-26T07:14:14.379Z,101287.69
2022-08-26T07:16:45.283Z,101283.64
2022-08-26T07:19:15.765Z,101289.44
2022-08-26T07:21:46.005Z,101287.77
2022-08-26T07:24:16.021Z,101292.30
2022-08-26T07:26:46.912Z,101297.27
2022-08-26T07:29:17.194Z,101294.82
2022-08-26T07:31:47.439Z,101294.44
2022-08-26T07:34:18.180Z,101300.89
2022-08-26T07:36:48.829Z,101300.99
2022-08-26T07:39:19.539Z,101307.21
2022-08-26T07:41:49.485Z,101308.28
2022-08-26T07:44:19.893Z,101309.77
2022-08-26T07:46:52.314Z,101313.15
2022-08-26T07:49:20.457Z,101316.09
2022-08-26T07:51:50.523Z,101319.15
2022-08-26T07:54:21.093Z,101321.65
2022-08-26T07:56:51.836Z,101327.33
2022-08-26T07:59:22.470Z,101328.93
2022-08-26T08:01:53.107Z,101331.61
2022-08-26T08:04:26.520Z,101334.22
2022-08-26T08:06:54.318Z,101333.84
2022-08-26T08:09:24.902Z,101334.47
2022-08-26T08:11:55.440Z,101331.95
2022-08-26T08:14:26.055Z,101334.27
2022-08-26T08:16:56.752Z,101335.36
2022-08-26T08:19:29.886Z,101334.82
2022-08-26T08:21:58.189Z,101337.34
2022-08-26T08:24:28.683Z,101335.62
2022-08-26T08:26:59.245Z,101333.94
2022-08-26T08:29:29.486Z,101332.48
2022-08-26T08:32:00.363Z,101333.34
2022-08-26T08:34:30.498Z,101337.33
2022-08-26T08:37:00.731Z,101337.14
2022-08-26T08:39:31.299Z,101337.39
2022-08-26T08:42:01.817Z,101333.66
2022-08-26T08:44:32.348Z,101334.74
2022-08-26T08:47:02.815Z,101339.68
2022-08-26T08:49:33.448Z,101339.54
2022-08-26T08:52:04.225Z,101337.39
2022-08-26T08:54:34.405Z,101339.91
2022-08-26T08:57:05.133Z,101337.91
2022-08-26T08:59:35.955Z,101339.90
2022-08-26T09:02:06.487Z,101339.66
2022-08-26T09:04:36.311Z,101338.47
2022-08-26T09:07:07.045Z,101340.12
2022-08-26T09:09:37.190Z,101340.48
2022-08-26T09:12:07.880Z,101341.58
2022-08-26T09:14:38.759Z,101341.43
2022-08-26T09:17:09.018Z,101337.52
2022-08-26T09:19:39.742Z,101338.99
2022-08-26T09:22:10.214Z,101335.31
2022-08-26T09:24:42.108Z,101338.01
2022-08-26T09:27:11.528Z,101341.69
2022-08-26T09:29:41.199Z,101343.00
2022-08-26T09:32:11.492Z,101345.38
2022-08-26T09:34:41.927Z,101345.87
2022-08-26T09:37:12.515Z,101347.37
2022-08-26T09:39:43.256Z,101351.17
2022-08-26T09:42:14.318Z,101348.49
2022-08-26T09:44:44.023Z,101349.06
2022-08-26T09:47:14.833Z,101343.77
2022-08-26T09:49:44.957Z,101342.73
2022-08-26T09:52:15.695Z,101344.16
2022-08-26T09:54:46.398Z,101346.67
2022-08-26T09:57:16.812Z,101344.22
2022-08-26T09:59:47.354Z,101343.34
2022-08-26T10:02:17.748Z,101347.00
2022-08-26T10:04:48.424Z,101346.97
2022-08-26T10:07:18.927Z,101345.70
2022-08-26T10:09:49.726Z,101345.54
2022-08-26T10:12:20.528Z,101347.33
2022-08-26T10:14:50.740Z,101344.07
2022-08-26T10:17:21.570Z,101341.37
2022-08-26T10:19:56.580Z,101341.55
2022-08-26T10:22:23.199Z,101338.59
2022-08-26T10:24:55.264Z,101342.33
2022-08-26T10:27:24.068Z,101339.15
2022-08-26T10:29:54.577Z,101340.44
2022-08-26T10:32:24.857Z,101339.70
2022-08-26T10:34:54.812Z,101337.58
2022-08-26T10:37:25.045Z,101342.04
2022-08-26T10:39:56.952Z,101338.25
2022-08-26T10:42:25.540Z,101337.26
2022-08-26T10:44:58.602Z,101335.04
2022-08-26T10:47:26.560Z,101333.85
2022-08-26T10:50:00.105Z,101331.20
2022-08-26T10:52:29.450Z,101331.98
2022-08-26T10:54:57.193Z,101330.70
2022-08-26T10:57:27.416Z,101333.37
2022-08-26T10:59:57.878Z,101329.31
2022-08-26T11:02:28.104Z,101326.06
2022-08-26T11:04:58.490Z,101326.38
2022-08-26T11:07:28.760Z,101324.20
2022-08-26T11:09:58.950Z,101321.32
2022-08-26T11:12:29.751Z,101323.54
2022-08-26T11:15:00.533Z,101323.28
2022-08-26T11:17:30.765Z,101326.27
2022-08-26T11:20:03.198Z,101325.95
2022-08-26T11:22:31.779Z,101327.44
2022-08-26T11:25:02.612Z,101325.35
2022-08-26T11:27:33.070Z,101325.77
2022-08-26T11:30:03.229Z,101322.99
2022-08-26T11:32:33.303Z,101321.02
2022-08-26T11:35:03.452Z,101322.30
2022-08-26T11:37:34.261Z,101324.55
2022-08-26T11:40:05.143Z,101321.97
2022-08-26T11:42:35.838Z,101323.23
2022-08-26T11:45:06.024Z,101322.54
2022-08-26T11:47:36.845Z,101326.54
2022-08-26T11:50:07.608Z,101327.47
2022-08-26T11:52:38.218Z,101328.89
2022-08-26T11:55:08.621Z,101331.24
2022-08-26T11:57:38.961Z,101329.40
2022-08-26T12:00:12.019Z,101330.04
2022-08-26T12:02:39.916Z,101327.32
2022-08-26T12:05:10.253Z,101329.79
2022-08-26T12:07:42.595Z,101328.15
2022-08-26T12:10:10.772Z,101328.54
2022-08-26T12:12:41.522Z,101327.15
2022-08-26T12:15:12.349Z,101327.00
2022-08-26T12:17:42.532Z,101326.26
2022-08-26T12:20:12.717Z,101328.29
2022-08-26T12:22:43.515Z,101327.91
2022-08-26T12:25:13.786Z,101331.95
2022-08-26T12:27:44.025Z,101330.15
2022-08-26T12:30:14.183Z,101327.60
2022-08-26T12:32:56.634Z,101325.27
2022-08-26T12:35:14.546Z,101330.25
2022-08-26T12:37:45.402Z,101328.06
2022-08-26T12:40:15.617Z,101332.35
2022-08-26T12:42:45.729Z,101334.74
2022-08-26T12:45:15.873Z,101325.78
2022-08-26T12:47:46.076Z,101331.24
2022-08-26T12:50:16.238Z,101330.51
2022-08-26T12:52:46.457Z,101328.72
2022-08-26T12:55:16.675Z,101332.54
2022-08-26T12:57:46.887Z,101334.01
2022-08-26T13:00:17.081Z,101335.01
2022-08-26T13:02:47.316Z,101328.68
2022-08-26T13:05:17.501Z,101325.59
2022-08-26T13:07:47.760Z,101326.03
2022-08-26T13:10:17.988Z,101326.10
2022-08-26T13:12:48.289Z,101325.63
2022-08-26T13:15:18.426Z,101324.72
2022-08-26T13:17:48.651Z,101328.26
2022-08-26T13:20:18.864Z,101327.84
2022-08-26T13:22:53.869Z,101325.92
2022-08-26T13:25:20.561Z,101324.19
2022-08-26T13:27:50.678Z,101325.70
2022-08-26T13:30:20.977Z,101315.96
2022-08-26T13:32:51.127Z,101317.07
2022-08-26T13:35:21.602Z,101316.18
2022-08-26T13:37:52.128Z,101317.57
2022-08-26T13:40:22.451Z,101327.60
2022-08-26T13:42:52.568Z,101326.18
2022-08-26T13:45:22.769Z,101323.86
2022-08-26T13:47:53.009Z,101320.34
2022-08-26T13:50:23.273Z,101319.31
2022-08-26T13:52:53.436Z,101318.94
2022-08-26T13:55:23.658Z,101325.39
2022-08-26T13:57:53.935Z,101316.35
2022-08-26T14:00:24.080Z,101321.61
2022-08-26T14:02:54.261Z,101330.94
2022-08-26T14:05:24.400Z,101334.34
2022-08-26T14:07:54.639Z,101331.60
2022-08-26T14:10:24.852Z,101337.22
2022-08-26T14:12:55.625Z,101335.69
2022-08-26T14:15:25.834Z,101333.49
2022-08-26T14:17:56.079Z,101336.68
2022-08-26T14:20:26.268Z,101332.08
2022-08-26T14:23:20.872Z,101334.27
2022-08-26T14:25:27.008Z,101332.66
2022-08-26T14:27:57.175Z,101335.44
2022-08-26T14:30:27.372Z,101335.66
2022-08-26T14:32:57.621Z,101341.21
2022-08-26T14:35:28.504Z,101328.92
2022-08-26T14:37:58.624Z,101323.18
2022-08-26T14:40:29.060Z,101324.41
2022-08-26T14:42:59.088Z,101325.02
2022-08-26T14:45:29.911Z,101324.55
2022-08-26T14:48:00.121Z,101327.48
2022-08-26T14:50:30.305Z,101324.75
2022-08-26T14:53:00.596Z,101327.55
2022-08-26T14:55:31.341Z,101330.52
2022-08-26T14:58:02.251Z,101328.30
2022-08-26T15:00:32.347Z,101324.89
2022-08-26T15:03:02.690Z,101319.55
2022-08-26T15:05:32.771Z,101319.50
2022-08-26T15:08:03.066Z,101318.45
2022-08-26T15:10:33.208Z,101320.68
2022-08-26T15:13:03.427Z,101322.16
2022-08-26T15:15:33.684Z,101330.91
2022-08-26T15:18:03.843Z,101329.36
2022-08-26T15:20:34.172Z,101336.19
2022-08-26T15:23:06.007Z,101335.37
2022-08-26T15:25:34.504Z,101335.76
2022-08-26T15:28:04.696Z,101328.20
2022-08-26T15:30:34.861Z,101328.11
2022-08-26T15:33:05.109Z,101331.23
2022-08-26T15:35:35.695Z,101333.59
2022-08-26T15:38:05.618Z,101334.39
2022-08-26T15:40:35.978Z,101340.84
2022-08-26T15:43:18.070Z,101351.04
2022-08-26T15:45:36.244Z,101355.04
2022-08-26T15:48:06.461Z,101353.73
2022-08-26T15:50:36.649Z,101350.88
2022-08-26T15:53:06.902Z,101348.67
2022-08-26T15:55:37.106Z,101355.44
2022-08-26T15:58:07.503Z,101359.22
2022-08-26T16:00:37.527Z,101357.34
2022-08-26T16:03:07.758Z,101357.51
2022-08-26T16:05:38.017Z,101354.02
2022-08-26T16:08:08.411Z,101355.92
2022-08-26T16:10:38.406Z,101353.28
2022-08-26T16:13:10.436Z,101355.83
2022-08-26T16:15:38.968Z,101358.93
2022-08-26T16:18:09.101Z,101358.36
2022-08-26T16:20:39.378Z,101360.83
2022-08-26T16:23:09.615Z,101365.57
2022-08-26T16:25:39.857Z,101366.71
2022-08-26T16:28:10.054Z,101369.77
2022-08-26T16:30:40.258Z,101362.36
2022-08-26T16:33:10.647Z,101358.82
2022-08-26T16:35:40.830Z,101358.05
2022-08-26T16:38:11.095Z,101352.19
2022-08-26T16:40:41.367Z,101353.32
2022-08-26T16:43:15.133Z,101354.47
2022-08-26T16:45:41.690Z,101360.34
2022-08-26T16:48:12.505Z,101355.13
2022-08-26T16:50:42.726Z,101352.00
2022-08-26T16:55:43.241Z,101359.01
2022-08-26T16:58:13.487Z,101362.41
2022-08-26T17:00:43.709Z,101363.66
2022-08-26T17:03:14.017Z,101363.21
2022-08-26T17:05:44.224Z,101368.02
2022-08-26T17:08:27.581Z,101370.00
2022-08-26T17:10:44.759Z,101370.97
2022-08-26T17:13:16.071Z,101369.96
2022-08-26T17:15:45.338Z,101375.05
2022-08-26T17:18:15.619Z,101376.88
2022-08-26T17:20:45.760Z,101381.97
2022-08-26T17:23:16.029Z,101381.93
2022-08-26T17:25:46.295Z,101384.84
2022-08-26T17:28:16.609Z,101393.16
2022-08-26T17:30:46.832Z,101391.07
2022-08-26T17:33:22.132Z,101390.97
2022-08-26T17:35:47.311Z,101388.76
2022-08-26T17:38:17.715Z,101382.94
2022-08-26T17:40:47.830Z,101382.18
2022-08-26T17:43:18.072Z,101380.06
2022-08-26T17:45:48.341Z,101385.69
2022-08-26T17:48:18.564Z,101389.14
2022-08-26T17:50:49.801Z,101391.38
2022-08-26T17:53:19.648Z,101391.77
2022-08-26T17:55:49.885Z,101392.48
2022-08-26T17:58:20.161Z,101399.20
2022-08-26T18:00:50.999Z,101410.95
2022-08-26T18:03:21.252Z,101413.90
2022-08-26T18:05:51.520Z,101420.02
2022-08-26T18:08:21.842Z,101419.45
2022-08-26T18:10:52.111Z,101423.72
2022-08-26T18:13:22.412Z,101420.90
2022-08-26T18:15:52.845Z,101425.09
2022-08-26T18:18:22.969Z,101430.33
2022-08-26T18:21:01.235Z,101431.32
2022-08-26T18:23:23.526Z,101435.10
2022-08-26T18:25:53.791Z,101435.01
2022-08-26T18:28:24.076Z,101432.59
2022-08-26T18:30:54.363Z,101431.13
2022-08-26T18:33:24.610Z,101437.52
2022-08-26T18:35:54.886Z,101441.90
2022-08-26T18:38:25.220Z,101447.73
2022-08-26T18:40:55.488Z,101450.72
2022-08-26T18:43:25.544Z,101451.15
2022-08-26T18:45:55.822Z,101452.19
2022-08-26T18:48:26.096Z,101457.23
2022-08-26T18:50:56.360Z,101457.19
2022-08-26T18:53:26.677Z,101462.12
2022-08-26T18:55:56.949Z,101458.46
2022-08-26T18:58:27.280Z,101453.93
2022-08-26T19:00:57.481Z,101451.60
2022-08-26T19:03:27.821Z,101452.72
2022-08-26T19:05:58.022Z,101453.02
2022-08-26T19:08:28.347Z,101456.78
2022-08-26T19:10:58.605Z,101457.16
2022-08-26T19:13:28.880Z,101461.95
2022-08-26T19:15:58.864Z,101462.19
2022-08-26T19:18:29.429Z,101459.58
2022-08-26T19:20:59.690Z,101458.62
2022-08-26T19:23:31.781Z,101454.28
2022-08-26T19:26:00.285Z,101451.18
2022-08-26T19:28:30.581Z,101446.59
2022-08-26T19:31:00.902Z,101442.61
2022-08-26T19:33:31.159Z,101442.78
2022-08-26T19:36:04.799Z,101443.65
2022-08-26T19:38:31.738Z,101447.41
2022-08-26T19:41:02.137Z,101449.65
2022-08-26T19:43:32.327Z,101453.84
2022-08-26T19:46:02.730Z,101457.31
2022-08-26T19:48:32.909Z,101460.80
2022-08-26T19:51:03.210Z,101460.07
2022-08-26T19:53:33.523Z,101454.61
2022-08-26T19:56:03.911Z,101457.82
2022-08-26T19:58:34.254Z,101459.14
2022-08-26T20:01:04.438Z,101458.82
2022-08-26T20:03:34.770Z,101453.05
2022-08-26T20:06:05.075Z,101448.60
2022-08-26T20:08:35.365Z,101451.14
2022-08-26T20:11:05.660Z,101450.34
2022-08-26T20:13:35.972Z,101453.42
2022-08-26T20:16:06.268Z,101452.54
2022-08-26T20:18:36.602Z,101452.60
2022-08-26T20:21:06.880Z,101449.71
2022-08-26T20:23:37.328Z,101449.84
2022-08-26T20:26:07.511Z,101447.65
2022-08-26T20:28:37.932Z,101448.22
2022-08-26T20:31:08.133Z,101448.94
2022-08-26T20:33:46.047Z,101450.50
2022-08-26T20:36:08.729Z,101455.19
2022-08-26T20:38:39.080Z,101452.77
2022-08-26T20:41:09.380Z,101451.31
2022-08-26T20:43:39.690Z,101453.96
2022-08-26T20:46:13.914Z,101448.76
2022-08-26T20:48:40.369Z,101445.74
2022-08-26T20:51:10.583Z,101448.86
2022-08-26T20:53:40.940Z,101457.82
2022-08-26T20:56:11.293Z,101455.79
2022-08-26T20:58:41.546Z,101454.07
2022-08-26T21:01:11.935Z,101460.63
2022-08-26T21:03:42.215Z,101461.33
2022-08-26T21:06:12.425Z,101468.78
2022-08-26T21:08:43.411Z,101470.01
2022-08-26T21:11:13.214Z,101471.37
2022-08-26T21:14:03.856Z,101472.87
2022-08-26T21:16:13.677Z,101470.69
2022-08-26T21:18:43.974Z,101472.67
2022-08-26T21:21:14.269Z,101470.97
2022-08-26T21:23:44.566Z,101471.23
2022-08-26T21:26:14.867Z,101468.06
2022-08-26T21:28:45.167Z,101462.86
2022-08-26T21:31:15.590Z,101463.31
2022-08-26T21:33:45.758Z,101461.65
2022-08-26T21:36:16.055Z,101467.10
2022-08-26T21:38:46.365Z,101465.13
2022-08-26T21:41:16.667Z,101468.70
2022-08-26T21:43:46.974Z,101463.01
2022-08-26T21:46:17.268Z,101462.09
2022-08-26T21:48:50.347Z,101464.39
2022-08-26T21:51:17.911Z,101467.16
2022-08-26T21:53:48.293Z,101472.11
2022-08-26T21:56:18.554Z,101475.07
2022-08-26T21:58:48.845Z,101474.32
2022-08-26T22:01:19.198Z,101473.48
2022-08-26T22:03:49.433Z,101478.74
2022-08-26T22:06:19.713Z,101475.42
2022-08-26T22:08:50.025Z,101473.86
2022-08-26T22:11:20.326Z,101470.24
2022-08-26T22:13:50.635Z,101471.56
2022-08-26T22:16:21.054Z,101475.14
2022-08-26T22:18:51.223Z,101480.64
2022-08-26T22:21:21.502Z,101478.43
2022-08-26T22:23:51.830Z,101482.93
2022-08-26T22:26:25.446Z,101487.46
2022-08-26T22:28:52.207Z,101488.37
2022-08-26T22:31:22.476Z,101493.11
2022-08-26T22:33:52.749Z,101491.88
2022-08-26T22:36:23.015Z,101492.79
2022-08-26T22:38:53.340Z,101488.46
2022-08-26T22:41:23.630Z,101486.86
2022-08-26T22:43:53.928Z,101489.86
2022-08-26T22:46:24.214Z,101490.92
2022-08-26T22:48:54.518Z,101495.20
2022-08-26T22:51:24.863Z,101494.03
2022-08-26T22:53:55.123Z,101492.17
2022-08-26T22:56:25.411Z,101492.76
2022-08-26T22:58:55.715Z,101491.89
2022-08-26T23:01:26.203Z,101491.26
2022-08-26T23:03:56.313Z,101492.75
2022-08-26T23:06:26.586Z,101491.83
2022-08-26T23:08:56.917Z,101485.63
2022-08-26T23:11:27.216Z,101483.26
2022-08-26T23:13:57.542Z,101483.30
2022-08-26T23:16:27.947Z,101485.68
2022-08-26T23:18:58.132Z,101484.23
2022-08-26T23:21:28.426Z,101483.86
2022-08-26T23:23:58.866Z,101485.32
2022-08-26T23:26:29.051Z,101487.86
2022-08-26T23:28:59.371Z,101486.62
2022-08-26T23:31:29.703Z,101485.56
2022-08-26T23:33:59.951Z,101483.11
2022-08-26T23:36:30.250Z,101481.27
2022-08-26T23:39:00.529Z,101475.72
2022-08-26T23:41:30.829Z,101479.14
2022-08-26T23:44:03.578Z,101479.90
2022-08-26T23:46:31.396Z,101479.21
2022-08-26T23:49:01.808Z,101477.42
2022-08-26T23:51:31.988Z,101477.50
2022-08-26T23:54:02.315Z,101473.72
2022-08-26T23:56:32.587Z,101474.38
2022-08-26T23:59:02.907Z,101472.26
